sensor_id;sensor_type;location;lat;lon;timestamp;P1;durP1;ratioP1;P2;durP2;ratioP2
16436;SDS011;8328;52.206;21.006;2023-09-30T00:00:44;9.50;;;6.77;;
16436;SDS011;8328;52.206;21.006;2023-09-30T00:03:10;8.63;;;6.80;;
16436;SDS011;8328;52.206;21.006;2023-09-30T00:05:37;10.53;;;6.77;;
16436;SDS011;8328;52.206;21.006;2023-09-30T00:08:04;9.50;;;6.47;;
16436;SDS011;8328;52.206;21.006;2023-09-30T00:10:30;10.87;;;6.27;;
16436;SDS011;8328;52.206;21.006;2023-09-30T00:12:56;9.23;;;6.70;;
16436;SDS011;8328;52.206;21.006;2023-09-30T00:15:23;11.03;;;6.80;;
16436;SDS011;8328;52.206;21.006;2023-09-30T00:17:50;10.80;;;6.70;;
16436;SDS011;8328;52.206;21.006;2023-09-30T00:20:16;10.77;;;7.20;;
16436;SDS011;8328;52.206;21.006;2023-09-30T00:22:42;7.83;;;6.20;;
16436;SDS011;8328;52.206;21.006;2023-09-30T00:25:08;10.63;;;6.87;;
16436;SDS011;8328;52.206;21.006;2023-09-30T00:27:37;13.60;;;6.20;;
16436;SDS011;8328;52.206;21.006;2023-09-30T00:30:04;8.87;;;6.60;;
16436;SDS011;8328;52.206;21.006;2023-09-30T00:32:31;9.27;;;6.30;;
16436;SDS011;8328;52.206;21.006;2023-09-30T00:34:58;13.00;;;6.60;;
16436;SDS011;8328;52.206;21.006;2023-09-30T00:37:24;12.90;;;6.73;;
16436;SDS011;8328;52.206;21.006;2023-09-30T00:39:50;9.63;;;6.23;;
16436;SDS011;8328;52.206;21.006;2023-09-30T00:42:16;11.50;;;7.03;;
16436;SDS011;8328;52.206;21.006;2023-09-30T00:44:43;10.57;;;6.77;;
16436;SDS011;8328;52.206;21.006;2023-09-30T00:47:09;10.77;;;6.30;;
16436;SDS011;8328;52.206;21.006;2023-09-30T00:49:36;9.07;;;6.07;;
16436;SDS011;8328;52.206;21.006;2023-09-30T00:52:02;10.37;;;6.93;;
16436;SDS011;8328;52.206;21.006;2023-09-30T00:54:28;9.00;;;6.57;;
16436;SDS011;8328;52.206;21.006;2023-09-30T00:56:55;9.83;;;7.00;;
16436;SDS011;8328;52.206;21.006;2023-09-30T00:59:22;10.73;;;6.50;;
16436;SDS011;8328;52.206;21.006;2023-09-30T01:01:50;10.53;;;6.97;;
16436;SDS011;8328;52.206;21.006;2023-09-30T01:04:16;10.63;;;6.70;;
16436;SDS011;8328;52.206;21.006;2023-09-30T01:06:43;9.50;;;6.87;;
16436;SDS011;8328;52.206;21.006;2023-09-30T01:09:08;9.13;;;6.47;;
16436;SDS011;8328;52.206;21.006;2023-09-30T01:11:35;10.10;;;7.13;;
16436;SDS011;8328;52.206;21.006;2023-09-30T01:14:01;8.90;;;6.20;;
16436;SDS011;8328;52.206;21.006;2023-09-30T01:16:27;9.53;;;6.37;;
16436;SDS011;8328;52.206;21.006;2023-09-30T01:18:53;8.13;;;6.10;;
16436;SDS011;8328;52.206;21.006;2023-09-30T01:21:19;9.20;;;5.93;;
16436;SDS011;8328;52.206;21.006;2023-09-30T01:23:46;8.50;;;6.50;;
16436;SDS011;8328;52.206;21.006;2023-09-30T01:26:12;8.87;;;7.03;;
16436;SDS011;8328;52.206;21.006;2023-09-30T01:28:38;7.40;;;6.10;;
16436;SDS011;8328;52.206;21.006;2023-09-30T01:31:05;10.83;;;6.80;;
16436;SDS011;8328;52.206;21.006;2023-09-30T01:33:31;10.03;;;6.67;;
16436;SDS011;8328;52.206;21.006;2023-09-30T01:35:58;9.00;;;6.60;;
16436;SDS011;8328;52.206;21.006;2023-09-30T01:38:24;10.63;;;7.23;;
16436;SDS011;8328;52.206;21.006;2023-09-30T01:40:51;10.13;;;6.43;;
16436;SDS011;8328;52.206;21.006;2023-09-30T01:43:19;9.47;;;6.90;;
16436;SDS011;8328;52.206;21.006;2023-09-30T01:45:45;9.53;;;6.70;;
16436;SDS011;8328;52.206;21.006;2023-09-30T01:48:20;12.33;;;7.07;;
16436;SDS011;8328;52.206;21.006;2023-09-30T01:51:09;10.90;;;6.77;;
16436;SDS011;8328;52.206;21.006;2023-09-30T01:53:36;8.80;;;6.80;;
16436;SDS011;8328;52.206;21.006;2023-09-30T01:56:02;12.37;;;7.33;;
16436;SDS011;8328;52.206;21.006;2023-09-30T01:58:28;10.90;;;7.40;;
16436;SDS011;8328;52.206;21.006;2023-09-30T02:01:00;9.37;;;6.70;;
16436;SDS011;8328;52.206;21.006;2023-09-30T02:03:27;11.10;;;7.37;;
16436;SDS011;8328;52.206;21.006;2023-09-30T02:05:54;9.17;;;6.77;;
16436;SDS011;8328;52.206;21.006;2023-09-30T02:08:20;9.47;;;6.87;;
16436;SDS011;8328;52.206;21.006;2023-09-30T02:10:47;8.97;;;6.73;;
16436;SDS011;8328;52.206;21.006;2023-09-30T02:13:13;11.50;;;6.90;;
16436;SDS011;8328;52.206;21.006;2023-09-30T02:15:40;8.20;;;6.93;;
16436;SDS011;8328;52.206;21.006;2023-09-30T02:18:06;8.93;;;7.10;;
16436;SDS011;8328;52.206;21.006;2023-09-30T02:20:32;11.20;;;7.03;;
16436;SDS011;8328;52.206;21.006;2023-09-30T02:22:59;10.37;;;6.60;;
16436;SDS011;8328;52.206;21.006;2023-09-30T02:25:27;8.53;;;6.70;;
16436;SDS011;8328;52.206;21.006;2023-09-30T02:27:53;8.57;;;6.70;;
16436;SDS011;8328;52.206;21.006;2023-09-30T02:30:19;11.07;;;6.87;;
16436;SDS011;8328;52.206;21.006;2023-09-30T02:32:46;8.23;;;6.13;;
16436;SDS011;8328;52.206;21.006;2023-09-30T02:35:12;10.20;;;6.90;;
16436;SDS011;8328;52.206;21.006;2023-09-30T02:37:40;11.23;;;7.27;;
16436;SDS011;8328;52.206;21.006;2023-09-30T02:40:06;9.67;;;6.77;;
16436;SDS011;8328;52.206;21.006;2023-09-30T02:42:39;9.90;;;6.23;;
16436;SDS011;8328;52.206;21.006;2023-09-30T02:45:05;10.67;;;6.47;;
16436;SDS011;8328;52.206;21.006;2023-09-30T02:47:33;9.50;;;6.80;;
16436;SDS011;8328;52.206;21.006;2023-09-30T02:50:00;13.40;;;10.07;;
16436;SDS011;8328;52.206;21.006;2023-09-30T02:52:26;16.10;;;11.73;;
16436;SDS011;8328;52.206;21.006;2023-09-30T02:54:54;10.83;;;7.37;;
16436;SDS011;8328;52.206;21.006;2023-09-30T02:57:22;10.20;;;8.10;;
16436;SDS011;8328;52.206;21.006;2023-09-30T02:59:48;8.70;;;6.60;;
16436;SDS011;8328;52.206;21.006;2023-09-30T03:02:14;11.27;;;7.47;;
16436;SDS011;8328;52.206;21.006;2023-09-30T03:04:43;11.00;;;7.80;;
16436;SDS011;8328;52.206;21.006;2023-09-30T03:07:10;9.13;;;7.30;;
16436;SDS011;8328;52.206;21.006;2023-09-30T03:09:37;9.43;;;6.90;;
16436;SDS011;8328;52.206;21.006;2023-09-30T03:12:03;12.47;;;7.73;;
16436;SDS011;8328;52.206;21.006;2023-09-30T03:14:29;10.00;;;7.23;;
16436;SDS011;8328;52.206;21.006;2023-09-30T03:16:56;9.20;;;7.10;;
16436;SDS011;8328;52.206;21.006;2023-09-30T03:19:22;9.90;;;7.13;;
16436;SDS011;8328;52.206;21.006;2023-09-30T03:21:49;10.33;;;6.73;;
16436;SDS011;8328;52.206;21.006;2023-09-30T03:24:15;9.17;;;6.73;;
16436;SDS011;8328;52.206;21.006;2023-09-30T03:26:41;11.10;;;7.00;;
16436;SDS011;8328;52.206;21.006;2023-09-30T03:29:09;9.73;;;7.87;;
16436;SDS011;8328;52.206;21.006;2023-09-30T03:31:35;13.10;;;8.40;;
16436;SDS011;8328;52.206;21.006;2023-09-30T03:34:05;10.17;;;7.33;;
16436;SDS011;8328;52.206;21.006;2023-09-30T03:36:31;11.83;;;8.30;;
16436;SDS011;8328;52.206;21.006;2023-09-30T03:38:58;10.73;;;7.47;;
16436;SDS011;8328;52.206;21.006;2023-09-30T03:41:32;11.03;;;7.30;;
16436;SDS011;8328;52.206;21.006;2023-09-30T03:43:58;10.70;;;7.23;;
16436;SDS011;8328;52.206;21.006;2023-09-30T03:46:24;10.30;;;6.47;;
16436;SDS011;8328;52.206;21.006;2023-09-30T03:48:51;9.63;;;7.07;;
16436;SDS011;8328;52.206;21.006;2023-09-30T03:51:17;10.00;;;7.43;;
16436;SDS011;8328;52.206;21.006;2023-09-30T03:53:45;11.33;;;7.77;;
16436;SDS011;8328;52.206;21.006;2023-09-30T03:56:12;15.27;;;9.17;;
16436;SDS011;8328;52.206;21.006;2023-09-30T03:58:41;12.47;;;10.10;;
16436;SDS011;8328;52.206;21.006;2023-09-30T04:01:08;11.33;;;7.40;;
16436;SDS011;8328;52.206;21.006;2023-09-30T04:03:42;14.17;;;9.50;;
16436;SDS011;8328;52.206;21.006;2023-09-30T04:06:08;10.40;;;6.80;;
16436;SDS011;8328;52.206;21.006;2023-09-30T04:08:34;11.83;;;8.77;;
16436;SDS011;8328;52.206;21.006;2023-09-30T04:11:01;12.43;;;8.10;;
16436;SDS011;8328;52.206;21.006;2023-09-30T04:13:30;11.60;;;8.07;;
16436;SDS011;8328;52.206;21.006;2023-09-30T04:15:56;9.43;;;6.77;;
16436;SDS011;8328;52.206;21.006;2023-09-30T04:18:23;12.30;;;8.43;;
16436;SDS011;8328;52.206;21.006;2023-09-30T04:20:51;8.97;;;6.57;;
16436;SDS011;8328;52.206;21.006;2023-09-30T04:23:17;9.73;;;7.17;;
16436;SDS011;8328;52.206;21.006;2023-09-30T04:25:45;11.73;;;7.23;;
16436;SDS011;8328;52.206;21.006;2023-09-30T04:28:12;12.47;;;7.27;;
16436;SDS011;8328;52.206;21.006;2023-09-30T04:30:39;11.40;;;6.87;;
16436;SDS011;8328;52.206;21.006;2023-09-30T04:33:05;10.00;;;6.27;;
16436;SDS011;8328;52.206;21.006;2023-09-30T04:35:31;10.87;;;8.27;;
16436;SDS011;8328;52.206;21.006;2023-09-30T04:37:57;12.37;;;8.03;;
16436;SDS011;8328;52.206;21.006;2023-09-30T04:40:26;10.20;;;7.03;;
16436;SDS011;8328;52.206;21.006;2023-09-30T04:42:52;7.97;;;6.63;;
16436;SDS011;8328;52.206;21.006;2023-09-30T04:45:26;11.07;;;7.00;;
16436;SDS011;8328;52.206;21.006;2023-09-30T04:47:55;10.03;;;6.47;;
16436;SDS011;8328;52.206;21.006;2023-09-30T04:50:22;8.50;;;6.83;;
16436;SDS011;8328;52.206;21.006;2023-09-30T04:52:49;10.27;;;6.53;;
16436;SDS011;8328;52.206;21.006;2023-09-30T04:55:16;8.60;;;6.43;;
16436;SDS011;8328;52.206;21.006;2023-09-30T04:57:43;9.67;;;6.43;;
16436;SDS011;8328;52.206;21.006;2023-09-30T05:00:16;8.50;;;6.43;;
16436;SDS011;8328;52.206;21.006;2023-09-30T05:02:44;8.43;;;6.27;;
16436;SDS011;8328;52.206;21.006;2023-09-30T05:05:10;10.47;;;6.60;;
16436;SDS011;8328;52.206;21.006;2023-09-30T05:07:40;10.03;;;6.43;;
16436;SDS011;8328;52.206;21.006;2023-09-30T05:10:10;10.97;;;7.80;;
16436;SDS011;8328;52.206;21.006;2023-09-30T05:12:38;9.30;;;6.13;;
16436;SDS011;8328;52.206;21.006;2023-09-30T05:15:06;10.67;;;6.30;;
16436;SDS011;8328;52.206;21.006;2023-09-30T05:17:32;7.47;;;5.70;;
16436;SDS011;8328;52.206;21.006;2023-09-30T05:20:00;8.00;;;5.87;;
16436;SDS011;8328;52.206;21.006;2023-09-30T05:22:26;8.47;;;6.13;;
16436;SDS011;8328;52.206;21.006;2023-09-30T05:24:52;8.23;;;5.90;;
16436;SDS011;8328;52.206;21.006;2023-09-30T05:27:19;8.10;;;6.27;;
16436;SDS011;8328;52.206;21.006;2023-09-30T05:29:45;10.90;;;6.87;;
16436;SDS011;8328;52.206;21.006;2023-09-30T05:32:12;15.00;;;6.70;;
16436;SDS011;8328;52.206;21.006;2023-09-30T05:34:39;10.37;;;6.47;;
16436;SDS011;8328;52.206;21.006;2023-09-30T05:37:05;10.57;;;7.90;;
16436;SDS011;8328;52.206;21.006;2023-09-30T05:39:32;11.97;;;8.33;;
16436;SDS011;8328;52.206;21.006;2023-09-30T05:41:58;11.27;;;7.37;;
16436;SDS011;8328;52.206;21.006;2023-09-30T05:44:24;12.27;;;8.30;;
16436;SDS011;8328;52.206;21.006;2023-09-30T05:46:52;15.23;;;9.53;;
16436;SDS011;8328;52.206;21.006;2023-09-30T05:49:19;12.13;;;8.20;;
16436;SDS011;8328;52.206;21.006;2023-09-30T05:51:45;12.90;;;8.23;;
16436;SDS011;8328;52.206;21.006;2023-09-30T05:54:12;9.10;;;6.50;;
16436;SDS011;8328;52.206;21.006;2023-09-30T05:56:38;8.70;;;7.20;;
16436;SDS011;8328;52.206;21.006;2023-09-30T05:59:07;12.67;;;8.20;;
16436;SDS011;8328;52.206;21.006;2023-09-30T06:01:33;12.57;;;6.30;;
16436;SDS011;8328;52.206;21.006;2023-09-30T06:04:00;10.00;;;6.23;;
16436;SDS011;8328;52.206;21.006;2023-09-30T06:06:26;7.73;;;5.80;;
16436;SDS011;8328;52.206;21.006;2023-09-30T06:08:56;10.30;;;6.63;;
16436;SDS011;8328;52.206;21.006;2023-09-30T06:11:25;8.13;;;6.43;;
16436;SDS011;8328;52.206;21.006;2023-09-30T06:13:56;9.37;;;6.30;;
16436;SDS011;8328;52.206;21.006;2023-09-30T06:16:26;8.70;;;5.77;;
16436;SDS011;8328;52.206;21.006;2023-09-30T06:18:53;9.77;;;6.53;;
16436;SDS011;8328;52.206;21.006;2023-09-30T06:21:24;9.57;;;6.40;;
16436;SDS011;8328;52.206;21.006;2023-09-30T06:23:54;9.73;;;7.03;;
16436;SDS011;8328;52.206;21.006;2023-09-30T06:26:20;7.03;;;5.63;;
16436;SDS011;8328;52.206;21.006;2023-09-30T06:28:46;8.93;;;6.03;;
16436;SDS011;8328;52.206;21.006;2023-09-30T06:31:13;9.13;;;5.97;;
16436;SDS011;8328;52.206;21.006;2023-09-30T06:33:40;6.80;;;4.87;;
16436;SDS011;8328;52.206;21.006;2023-09-30T06:36:10;6.67;;;5.13;;
16436;SDS011;8328;52.206;21.006;2023-09-30T06:38:39;10.40;;;6.80;;
16436;SDS011;8328;52.206;21.006;2023-09-30T06:41:05;8.90;;;5.80;;
16436;SDS011;8328;52.206;21.006;2023-09-30T06:43:32;6.83;;;5.27;;
16436;SDS011;8328;52.206;21.006;2023-09-30T06:46:05;8.20;;;5.43;;
16436;SDS011;8328;52.206;21.006;2023-09-30T06:48:32;9.30;;;5.73;;
16436;SDS011;8328;52.206;21.006;2023-09-30T06:50:58;7.27;;;5.30;;
16436;SDS011;8328;52.206;21.006;2023-09-30T06:53:25;10.13;;;6.67;;
16436;SDS011;8328;52.206;21.006;2023-09-30T06:55:51;8.53;;;5.90;;
16436;SDS011;8328;52.206;21.006;2023-09-30T06:58:17;11.97;;;6.93;;
16436;SDS011;8328;52.206;21.006;2023-09-30T07:00:50;9.13;;;6.77;;
16436;SDS011;8328;52.206;21.006;2023-09-30T07:03:17;10.00;;;6.43;;
16436;SDS011;8328;52.206;21.006;2023-09-30T07:05:44;7.03;;;5.70;;
16436;SDS011;8328;52.206;21.006;2023-09-30T07:08:14;10.90;;;7.57;;
16436;SDS011;8328;52.206;21.006;2023-09-30T07:10:41;9.80;;;6.13;;
16436;SDS011;8328;52.206;21.006;2023-09-30T07:13:08;7.70;;;5.97;;
16436;SDS011;8328;52.206;21.006;2023-09-30T07:15:34;8.43;;;6.33;;
16436;SDS011;8328;52.206;21.006;2023-09-30T07:18:00;8.33;;;6.23;;
16436;SDS011;8328;52.206;21.006;2023-09-30T07:20:26;9.87;;;6.90;;
16436;SDS011;8328;52.206;21.006;2023-09-30T07:22:53;6.77;;;6.03;;
16436;SDS011;8328;52.206;21.006;2023-09-30T07:25:25;7.97;;;6.30;;
16436;SDS011;8328;52.206;21.006;2023-09-30T07:27:51;10.30;;;7.93;;
16436;SDS011;8328;52.206;21.006;2023-09-30T07:30:19;9.43;;;6.93;;
16436;SDS011;8328;52.206;21.006;2023-09-30T07:32:46;10.33;;;6.20;;
16436;SDS011;8328;52.206;21.006;2023-09-30T07:35:12;12.53;;;8.27;;
16436;SDS011;8328;52.206;21.006;2023-09-30T07:37:41;8.23;;;6.70;;
16436;SDS011;8328;52.206;21.006;2023-09-30T07:40:07;12.10;;;7.53;;
16436;SDS011;8328;52.206;21.006;2023-09-30T07:45:13;9.47;;;6.73;;
16436;SDS011;8328;52.206;21.006;2023-09-30T07:47:43;10.53;;;7.00;;
16436;SDS011;8328;52.206;21.006;2023-09-30T07:50:09;9.30;;;6.53;;
16436;SDS011;8328;52.206;21.006;2023-09-30T07:52:35;10.03;;;7.13;;
16436;SDS011;8328;52.206;21.006;2023-09-30T07:55:01;11.00;;;7.00;;
16436;SDS011;8328;52.206;21.006;2023-09-30T07:57:30;10.33;;;6.77;;
16436;SDS011;8328;52.206;21.006;2023-09-30T07:59:56;7.93;;;6.50;;
16436;SDS011;8328;52.206;21.006;2023-09-30T08:02:22;11.57;;;7.80;;
16436;SDS011;8328;52.206;21.006;2023-09-30T08:04:49;10.90;;;7.13;;
16436;SDS011;8328;52.206;21.006;2023-09-30T08:07:16;10.60;;;7.33;;
16436;SDS011;8328;52.206;21.006;2023-09-30T08:09:42;9.20;;;6.90;;
16436;SDS011;8328;52.206;21.006;2023-09-30T08:12:08;8.10;;;6.60;;
16436;SDS011;8328;52.206;21.006;2023-09-30T08:14:34;10.77;;;6.90;;
16436;SDS011;8328;52.206;21.006;2023-09-30T08:17:00;12.43;;;7.30;;
16436;SDS011;8328;52.206;21.006;2023-09-30T08:19:27;9.57;;;7.17;;
16436;SDS011;8328;52.206;21.006;2023-09-30T08:21:53;10.00;;;6.80;;
16436;SDS011;8328;52.206;21.006;2023-09-30T08:24:19;11.17;;;8.00;;
16436;SDS011;8328;52.206;21.006;2023-09-30T08:26:46;9.87;;;7.40;;
16436;SDS011;8328;52.206;21.006;2023-09-30T08:29:12;8.90;;;6.67;;
16436;SDS011;8328;52.206;21.006;2023-09-30T08:31:38;11.83;;;7.77;;
16436;SDS011;8328;52.206;21.006;2023-09-30T08:34:04;12.57;;;8.53;;
16436;SDS011;8328;52.206;21.006;2023-09-30T08:36:30;13.60;;;8.20;;
16436;SDS011;8328;52.206;21.006;2023-09-30T08:38:56;10.10;;;8.17;;
16436;SDS011;8328;52.206;21.006;2023-09-30T08:41:24;10.53;;;7.80;;
16436;SDS011;8328;52.206;21.006;2023-09-30T08:43:57;12.07;;;7.97;;
16436;SDS011;8328;52.206;21.006;2023-09-30T08:46:25;11.63;;;9.03;;
16436;SDS011;8328;52.206;21.006;2023-09-30T08:48:52;12.37;;;8.93;;
16436;SDS011;8328;52.206;21.006;2023-09-30T08:51:20;14.13;;;9.17;;
16436;SDS011;8328;52.206;21.006;2023-09-30T08:53:46;16.67;;;8.83;;
16436;SDS011;8328;52.206;21.006;2023-09-30T08:56:14;12.03;;;9.53;;
16436;SDS011;8328;52.206;21.006;2023-09-30T08:58:51;12.30;;;9.50;;
16436;SDS011;8328;52.206;21.006;2023-09-30T09:01:19;14.60;;;9.50;;
16436;SDS011;8328;52.206;21.006;2023-09-30T09:03:46;13.03;;;8.97;;
16436;SDS011;8328;52.206;21.006;2023-09-30T09:06:17;13.53;;;9.90;;
16436;SDS011;8328;52.206;21.006;2023-09-30T09:08:44;14.03;;;10.33;;
16436;SDS011;8328;52.206;21.006;2023-09-30T09:11:10;11.83;;;9.47;;
16436;SDS011;8328;52.206;21.006;2023-09-30T09:13:45;14.97;;;9.73;;
16436;SDS011;8328;52.206;21.006;2023-09-30T09:16:14;14.83;;;10.07;;
16436;SDS011;8328;52.206;21.006;2023-09-30T09:18:40;14.83;;;9.43;;
16436;SDS011;8328;52.206;21.006;2023-09-30T09:23:39;14.80;;;10.10;;
16436;SDS011;8328;52.206;21.006;2023-09-30T09:26:05;16.03;;;9.33;;
16436;SDS011;8328;52.206;21.006;2023-09-30T09:28:36;14.53;;;9.60;;
16436;SDS011;8328;52.206;21.006;2023-09-30T09:31:23;14.60;;;9.60;;
16436;SDS011;8328;52.206;21.006;2023-09-30T09:33:50;16.37;;;9.70;;
16436;SDS011;8328;52.206;21.006;2023-09-30T09:36:17;17.40;;;11.37;;
16436;SDS011;8328;52.206;21.006;2023-09-30T09:38:45;11.93;;;9.63;;
16436;SDS011;8328;52.206;21.006;2023-09-30T09:41:12;14.10;;;10.47;;
16436;SDS011;8328;52.206;21.006;2023-09-30T09:43:39;14.63;;;9.80;;
16436;SDS011;8328;52.206;21.006;2023-09-30T09:46:07;17.57;;;10.33;;
16436;SDS011;8328;52.206;21.006;2023-09-30T09:48:36;14.07;;;10.63;;
16436;SDS011;8328;52.206;21.006;2023-09-30T09:51:05;15.77;;;9.80;;
16436;SDS011;8328;52.206;21.006;2023-09-30T09:53:34;17.80;;;10.73;;
16436;SDS011;8328;52.206;21.006;2023-09-30T09:56:04;14.20;;;10.20;;
16436;SDS011;8328;52.206;21.006;2023-09-30T09:58:32;17.77;;;11.23;;
16436;SDS011;8328;52.206;21.006;2023-09-30T10:00:59;13.63;;;10.37;;
16436;SDS011;8328;52.206;21.006;2023-09-30T10:03:26;14.03;;;10.23;;
16436;SDS011;8328;52.206;21.006;2023-09-30T10:05:52;17.37;;;10.97;;
16436;SDS011;8328;52.206;21.006;2023-09-30T10:08:19;13.27;;;10.17;;
16436;SDS011;8328;52.206;21.006;2023-09-30T10:10:53;15.33;;;10.70;;
16436;SDS011;8328;52.206;21.006;2023-09-30T10:19:10;13.30;;;9.53;;
16436;SDS011;8328;52.206;21.006;2023-09-30T10:21:37;12.67;;;9.17;;
16436;SDS011;8328;52.206;21.006;2023-09-30T10:35:15;9.77;;;6.40;;
16436;SDS011;8328;52.206;21.006;2023-09-30T10:39:04;9.17;;;5.40;;
16436;SDS011;8328;52.206;21.006;2023-09-30T10:41:00;8.73;;;5.17;;
16436;SDS011;8328;52.206;21.006;2023-09-30T10:43:30;7.97;;;5.10;;
16436;SDS011;8328;52.206;21.006;2023-09-30T10:45:57;6.23;;;4.50;;
16436;SDS011;8328;52.206;21.006;2023-09-30T10:48:33;6.10;;;3.90;;
16436;SDS011;8328;52.206;21.006;2023-09-30T10:51:00;6.70;;;4.07;;
16436;SDS011;8328;52.206;21.006;2023-09-30T10:53:39;4.80;;;3.50;;
16436;SDS011;8328;52.206;21.006;2023-09-30T10:56:10;4.50;;;3.00;;
16436;SDS011;8328;52.206;21.006;2023-09-30T11:01:06;2.43;;;1.73;;
16436;SDS011;8328;52.206;21.006;2023-09-30T11:03:32;4.40;;;2.33;;
16436;SDS011;8328;52.206;21.006;2023-09-30T11:05:58;4.33;;;2.40;;
16436;SDS011;8328;52.206;21.006;2023-09-30T11:08:24;5.40;;;2.30;;
16436;SDS011;8328;52.206;21.006;2023-09-30T11:10:53;3.40;;;2.10;;
16436;SDS011;8328;52.206;21.006;2023-09-30T11:13:20;5.00;;;2.50;;
16436;SDS011;8328;52.206;21.006;2023-09-30T11:15:46;2.87;;;1.93;;
16436;SDS011;8328;52.206;21.006;2023-09-30T11:18:13;4.50;;;2.20;;
16436;SDS011;8328;52.206;21.006;2023-09-30T11:20:39;3.20;;;1.97;;
16436;SDS011;8328;52.206;21.006;2023-09-30T11:23:06;2.03;;;1.63;;
16436;SDS011;8328;52.206;21.006;2023-09-30T11:25:35;3.30;;;1.90;;
16436;SDS011;8328;52.206;21.006;2023-09-30T11:30:58;4.17;;;2.00;;
16436;SDS011;8328;52.206;21.006;2023-09-30T11:33:27;3.10;;;1.83;;
16436;SDS011;8328;52.206;21.006;2023-09-30T11:35:57;2.63;;;1.60;;
16436;SDS011;8328;52.206;21.006;2023-09-30T11:38:24;5.50;;;2.33;;
16436;SDS011;8328;52.206;21.006;2023-09-30T11:40:59;4.90;;;1.73;;
16436;SDS011;8328;52.206;21.006;2023-09-30T11:43:28;4.73;;;2.03;;
16436;SDS011;8328;52.206;21.006;2023-09-30T11:46:03;3.73;;;1.73;;
16436;SDS011;8328;52.206;21.006;2023-09-30T11:48:34;2.73;;;1.70;;
16436;SDS011;8328;52.206;21.006;2023-09-30T11:51:01;4.23;;;1.70;;
16436;SDS011;8328;52.206;21.006;2023-09-30T11:53:31;4.90;;;1.63;;
16436;SDS011;8328;52.206;21.006;2023-09-30T11:55:59;4.43;;;1.87;;
16436;SDS011;8328;52.206;21.006;2023-09-30T11:58:28;3.30;;;2.17;;
16436;SDS011;8328;52.206;21.006;2023-09-30T12:00:59;5.13;;;2.03;;
16436;SDS011;8328;52.206;21.006;2023-09-30T12:03:26;7.57;;;2.27;;
16436;SDS011;8328;52.206;21.006;2023-09-30T12:05:53;3.80;;;1.80;;
16436;SDS011;8328;52.206;21.006;2023-09-30T12:08:20;6.37;;;1.87;;
16436;SDS011;8328;52.206;21.006;2023-09-30T12:10:47;3.80;;;2.00;;
16436;SDS011;8328;52.206;21.006;2023-09-30T12:13:14;4.17;;;1.80;;
16436;SDS011;8328;52.206;21.006;2023-09-30T12:15:40;2.80;;;1.87;;
16436;SDS011;8328;52.206;21.006;2023-09-30T12:18:06;4.10;;;2.07;;
16436;SDS011;8328;52.206;21.006;2023-09-30T12:20:32;4.53;;;2.00;;
16436;SDS011;8328;52.206;21.006;2023-09-30T12:22:58;2.47;;;1.67;;
16436;SDS011;8328;52.206;21.006;2023-09-30T12:25:25;4.67;;;2.00;;
16436;SDS011;8328;52.206;21.006;2023-09-30T12:27:51;4.57;;;1.87;;
16436;SDS011;8328;52.206;21.006;2023-09-30T12:30:20;7.67;;;1.80;;
16436;SDS011;8328;52.206;21.006;2023-09-30T12:32:46;5.90;;;2.40;;
16436;SDS011;8328;52.206;21.006;2023-09-30T12:35:12;5.03;;;2.20;;
16436;SDS011;8328;52.206;21.006;2023-09-30T12:37:38;6.30;;;2.03;;
16436;SDS011;8328;52.206;21.006;2023-09-30T12:40:05;5.73;;;2.23;;
16436;SDS011;8328;52.206;21.006;2023-09-30T12:42:36;5.77;;;1.83;;
16436;SDS011;8328;52.206;21.006;2023-09-30T12:45:02;3.57;;;2.13;;
16436;SDS011;8328;52.206;21.006;2023-09-30T12:47:30;7.10;;;2.73;;
16436;SDS011;8328;52.206;21.006;2023-09-30T12:49:56;4.70;;;2.13;;
16436;SDS011;8328;52.206;21.006;2023-09-30T12:52:23;5.10;;;2.20;;
16436;SDS011;8328;52.206;21.006;2023-09-30T12:54:49;5.23;;;2.07;;
16436;SDS011;8328;52.206;21.006;2023-09-30T12:57:15;2.93;;;2.00;;
16436;SDS011;8328;52.206;21.006;2023-09-30T12:59:43;3.67;;;2.10;;
16436;SDS011;8328;52.206;21.006;2023-09-30T13:02:14;9.73;;;1.90;;
16436;SDS011;8328;52.206;21.006;2023-09-30T13:04:41;5.17;;;2.53;;
16436;SDS011;8328;52.206;21.006;2023-09-30T13:07:09;7.13;;;2.50;;
16436;SDS011;8328;52.206;21.006;2023-09-30T13:09:36;4.17;;;1.90;;
16436;SDS011;8328;52.206;21.006;2023-09-30T13:12:03;4.90;;;1.73;;
16436;SDS011;8328;52.206;21.006;2023-09-30T13:14:29;3.87;;;2.17;;
16436;SDS011;8328;52.206;21.006;2023-09-30T13:16:55;5.20;;;1.80;;
16436;SDS011;8328;52.206;21.006;2023-09-30T13:19:21;4.57;;;2.20;;
16436;SDS011;8328;52.206;21.006;2023-09-30T13:21:50;6.00;;;2.00;;
16436;SDS011;8328;52.206;21.006;2023-09-30T13:24:18;4.47;;;2.00;;
16436;SDS011;8328;52.206;21.006;2023-09-30T13:26:44;3.47;;;1.23;;
16436;SDS011;8328;52.206;21.006;2023-09-30T13:29:11;4.13;;;2.07;;
16436;SDS011;8328;52.206;21.006;2023-09-30T13:31:38;3.57;;;1.73;;
16436;SDS011;8328;52.206;21.006;2023-09-30T13:34:05;3.50;;;2.00;;
16436;SDS011;8328;52.206;21.006;2023-09-30T13:36:31;4.87;;;2.00;;
16436;SDS011;8328;52.206;21.006;2023-09-30T13:38:57;4.27;;;1.83;;
16436;SDS011;8328;52.206;21.006;2023-09-30T13:41:23;4.90;;;1.83;;
16436;SDS011;8328;52.206;21.006;2023-09-30T13:43:49;4.30;;;1.60;;
16436;SDS011;8328;52.206;21.006;2023-09-30T13:46:16;3.03;;;1.40;;
16436;SDS011;8328;52.206;21.006;2023-09-30T13:48:42;4.63;;;1.40;;
16436;SDS011;8328;52.206;21.006;2023-09-30T13:51:08;2.57;;;1.43;;
16436;SDS011;8328;52.206;21.006;2023-09-30T13:53:36;4.20;;;1.90;;
16436;SDS011;8328;52.206;21.006;2023-09-30T13:56:02;2.93;;;1.50;;
16436;SDS011;8328;52.206;21.006;2023-09-30T13:58:29;3.93;;;1.43;;
16436;SDS011;8328;52.206;21.006;2023-09-30T14:00:55;6.37;;;1.70;;
16436;SDS011;8328;52.206;21.006;2023-09-30T14:03:22;3.63;;;1.67;;
16436;SDS011;8328;52.206;21.006;2023-09-30T14:05:51;4.83;;;1.67;;
16436;SDS011;8328;52.206;21.006;2023-09-30T14:08:24;4.27;;;1.63;;
16436;SDS011;8328;52.206;21.006;2023-09-30T14:10:50;4.33;;;1.60;;
16436;SDS011;8328;52.206;21.006;2023-09-30T14:13:17;7.17;;;3.10;;
16436;SDS011;8328;52.206;21.006;2023-09-30T14:15:44;4.63;;;2.30;;
16436;SDS011;8328;52.206;21.006;2023-09-30T14:18:10;3.97;;;2.00;;
16436;SDS011;8328;52.206;21.006;2023-09-30T14:20:36;4.60;;;1.97;;
16436;SDS011;8328;52.206;21.006;2023-09-30T14:23:02;3.90;;;1.43;;
16436;SDS011;8328;52.206;21.006;2023-09-30T14:25:29;2.70;;;1.40;;
16436;SDS011;8328;52.206;21.006;2023-09-30T14:27:55;4.67;;;1.70;;
16436;SDS011;8328;52.206;21.006;2023-09-30T14:30:24;3.37;;;1.43;;
16436;SDS011;8328;52.206;21.006;2023-09-30T14:32:51;2.63;;;1.40;;
16436;SDS011;8328;52.206;21.006;2023-09-30T14:35:19;2.90;;;1.37;;
16436;SDS011;8328;52.206;21.006;2023-09-30T14:37:45;3.13;;;1.27;;
16436;SDS011;8328;52.206;21.006;2023-09-30T14:40:11;5.10;;;1.80;;
16436;SDS011;8328;52.206;21.006;2023-09-30T14:42:38;3.63;;;1.63;;
16436;SDS011;8328;52.206;21.006;2023-09-30T14:45:04;4.73;;;1.50;;
16436;SDS011;8328;52.206;21.006;2023-09-30T14:47:31;2.43;;;1.40;;
16436;SDS011;8328;52.206;21.006;2023-09-30T14:49:57;3.80;;;1.77;;
16436;SDS011;8328;52.206;21.006;2023-09-30T14:52:26;4.13;;;1.80;;
16436;SDS011;8328;52.206;21.006;2023-09-30T14:54:52;2.23;;;1.50;;
16436;SDS011;8328;52.206;21.006;2023-09-30T14:57:18;5.33;;;1.80;;
16436;SDS011;8328;52.206;21.006;2023-09-30T14:59:45;5.40;;;1.67;;
16436;SDS011;8328;52.206;21.006;2023-09-30T15:02:12;4.60;;;1.80;;
16436;SDS011;8328;52.206;21.006;2023-09-30T15:04:38;6.67;;;1.60;;
16436;SDS011;8328;52.206;21.006;2023-09-30T15:07:04;4.17;;;1.70;;
16436;SDS011;8328;52.206;21.006;2023-09-30T15:09:31;4.23;;;1.67;;